createdAt,value
2023-05-11T00:02:05.983Z,7.95
2023-05-11T00:04:33.063Z,7.92
2023-05-11T00:06:59.939Z,7.88
2023-05-11T00:09:26.799Z,7.84
2023-05-11T00:11:53.727Z,7.78
2023-05-11T00:14:20.585Z,7.78
2023-05-11T00:16:47.587Z,7.83
2023-05-11T00:19:14.506Z,7.85
2023-05-11T00:21:41.445Z,7.83
2023-05-11T00:24:08.695Z,7.82
2023-05-11T00:26:35.930Z,7.81
2023-05-11T00:29:02.861Z,7.79
2023-05-11T00:31:30.547Z,7.76
2023-05-11T00:33:57.780Z,7.72
2023-05-11T00:36:24.745Z,7.67
2023-05-11T00:38:52.894Z,7.71
2023-05-11T00:41:19.867Z,7.77
2023-05-11T00:43:46.759Z,7.78
2023-05-11T00:46:13.647Z,7.77
2023-05-11T00:48:40.782Z,7.72
2023-05-11T00:51:07.712Z,7.67
2023-05-11T00:53:34.661Z,7.62
2023-05-11T00:56:01.644Z,7.55
2023-05-11T00:58:28.504Z,7.49
2023-05-11T01:00:55.556Z,7.43
2023-05-11T01:03:22.531Z,7.38
2023-05-11T01:06:23.506Z,7.41
2023-05-11T01:08:53.216Z,7.48
2023-05-11T01:11:41.501Z,7.48
2023-05-11T01:14:27.692Z,7.45
2023-05-11T01:16:57.166Z,7.43
2023-05-11T01:19:45.019Z,7.39
2023-05-11T01:23:07.651Z,7.33
2023-05-11T01:26:02.555Z,7.27
2023-05-11T01:29:00.712Z,7.22
2023-05-11T01:31:29.559Z,7.18
2023-05-11T01:34:02.890Z,7.20
2023-05-11T01:36:34.357Z,7.23
2023-05-11T01:39:04.968Z,7.21
2023-05-11T01:41:32.589Z,7.14
2023-05-11T01:44:01.052Z,7.09
2023-05-11T01:46:30.196Z,7.03
2023-05-11T01:48:57.232Z,6.98
2023-05-11T01:51:24.321Z,6.95
2023-05-11T01:53:51.205Z,6.90
2023-05-11T01:56:18.119Z,6.86
2023-05-11T01:58:44.991Z,6.90
2023-05-11T02:01:11.881Z,6.97
2023-05-11T02:03:38.966Z,6.98
2023-05-11T02:06:06.333Z,6.96
2023-05-11T02:08:33.561Z,6.93
2023-05-11T02:11:00.755Z,6.89
2023-05-11T02:13:28.659Z,6.84
2023-05-11T02:15:56.809Z,6.79
2023-05-11T02:18:24.434Z,6.73
2023-05-11T02:20:56.545Z,6.65
2023-05-11T02:23:25.038Z,6.65
2023-05-11T02:25:55.010Z,6.71
2023-05-11T02:28:22.151Z,6.71
2023-05-11T02:30:50.819Z,6.67
2023-05-11T02:33:24.814Z,6.65
2023-05-11T02:35:52.062Z,6.61
2023-05-11T02:38:19.142Z,6.56
2023-05-11T02:40:46.985Z,6.51
2023-05-11T02:43:16.075Z,6.45
2023-05-11T02:45:48.724Z,6.41
2023-05-11T02:48:21.568Z,6.45
2023-05-11T02:50:48.710Z,6.52
2023-05-11T02:53:16.047Z,6.55
2023-05-11T02:55:43.704Z,6.55
2023-05-11T02:58:10.606Z,6.53
2023-05-11T03:00:39.244Z,6.49
2023-05-11T03:03:06.377Z,6.46
2023-05-11T03:05:33.346Z,6.42
2023-05-11T03:08:00.465Z,6.36
2023-05-11T03:10:27.569Z,6.30
2023-05-11T03:12:54.427Z,6.26
2023-05-11T03:15:21.700Z,6.30
2023-05-11T03:17:50.254Z,6.36
2023-05-11T03:20:21.908Z,6.37
2023-05-11T03:22:49.059Z,6.37
2023-05-11T03:25:16.451Z,6.36
2023-05-11T03:27:43.883Z,6.32
2023-05-11T03:30:12.013Z,6.29
2023-05-11T03:32:42.570Z,6.27
2023-05-11T03:35:10.007Z,6.25
2023-05-11T03:37:38.309Z,6.23
2023-05-11T03:40:06.781Z,6.28
2023-05-11T03:42:39.114Z,6.38
2023-05-11T03:45:06.956Z,6.41
2023-05-11T03:47:33.899Z,6.44
2023-05-11T03:50:01.161Z,6.42
2023-05-11T03:52:28.409Z,6.38
2023-05-11T03:54:55.241Z,6.31
2023-05-11T03:57:22.146Z,6.28
2023-05-11T03:59:49.146Z,6.26
2023-05-11T04:02:16.075Z,6.34
2023-05-11T04:04:43.252Z,6.47
2023-05-11T04:07:10.257Z,6.58
2023-05-11T04:09:37.108Z,6.61
2023-05-11T04:14:09.549Z,6.59
2023-05-11T04:16:36.673Z,6.61
2023-05-11T04:19:03.880Z,6.67
2023-05-11T04:21:31.263Z,6.73
2023-05-11T04:23:58.373Z,6.86
2023-05-11T04:26:25.258Z,7.01
2023-05-11T04:28:52.190Z,7.10
2023-05-11T04:31:20.139Z,7.14
2023-05-11T04:33:47.098Z,7.18
2023-05-11T04:36:14.370Z,7.23
2023-05-11T04:38:41.222Z,7.29
2023-05-11T04:41:09.147Z,7.35
2023-05-11T04:43:37.154Z,7.43
2023-05-11T04:46:04.974Z,7.56
2023-05-11T04:48:32.060Z,7.74
2023-05-11T04:50:59.046Z,7.86
2023-05-11T04:53:30.245Z,7.95
2023-05-11T04:55:57.518Z,8.05
2023-05-11T04:58:24.768Z,8.13
2023-05-11T05:00:51.782Z,8.18
2023-05-11T05:03:19.525Z,8.23
2023-05-11T05:05:46.428Z,8.28
2023-05-11T05:08:13.625Z,8.36
2023-05-11T05:10:40.650Z,8.42
2023-05-11T05:13:07.666Z,8.54
2023-05-11T05:15:35.458Z,8.73
2023-05-11T05:18:02.750Z,8.91
2023-05-11T05:20:29.778Z,9.09
2023-05-11T05:22:59.045Z,9.26
2023-05-11T05:25:26.221Z,9.41
2023-05-11T05:27:53.183Z,9.54
2023-05-11T05:30:20.775Z,9.65
2023-05-11T05:32:48.468Z,9.74
2023-05-11T05:35:15.496Z,9.81
2023-05-11T05:37:43.268Z,9.87
2023-05-11T05:40:11.272Z,9.96
2023-05-11T05:42:44.042Z,10.05
2023-05-11T05:45:14.861Z,10.13
2023-05-11T05:47:42.183Z,10.18
2023-05-11T05:50:11.936Z,10.24
2023-05-11T05:52:40.925Z,10.28
2023-05-11T05:55:08.730Z,10.37
2023-05-11T05:57:35.941Z,10.46
2023-05-11T06:00:04.073Z,10.56
2023-05-11T06:02:39.919Z,10.66
2023-05-11T06:05:08.208Z,10.73
2023-05-11T06:07:35.249Z,10.83
2023-05-11T06:10:02.649Z,10.95
2023-05-11T06:12:30.232Z,11.06
2023-05-11T06:14:57.432Z,11.12
2023-05-11T06:17:24.651Z,11.21
2023-05-11T06:19:51.612Z,11.30
2023-05-11T06:22:21.217Z,11.42
2023-05-11T06:24:48.232Z,11.57
2023-05-11T06:27:17.925Z,11.68
2023-05-11T06:29:45.280Z,11.79
2023-05-11T06:32:17.321Z,11.89
2023-05-11T06:34:44.290Z,12.00
2023-05-11T06:37:11.310Z,12.04
2023-05-11T06:39:38.125Z,12.08
2023-05-11T06:42:07.912Z,12.14
2023-05-11T06:44:34.855Z,12.19
2023-05-11T06:47:01.725Z,12.26
2023-05-11T06:49:28.982Z,12.34
2023-05-11T06:51:55.843Z,12.43
2023-05-11T06:54:22.914Z,12.56
2023-05-11T06:56:49.910Z,12.68
2023-05-11T06:59:16.791Z,12.76
2023-05-11T07:01:44.038Z,12.85
2023-05-11T07:04:11.063Z,12.94
2023-05-11T07:06:37.988Z,13.06
2023-05-11T07:09:05.046Z,13.14
2023-05-11T07:11:32.386Z,13.25
2023-05-11T07:13:59.333Z,13.39
2023-05-11T07:16:26.432Z,13.52
2023-05-11T07:18:53.502Z,13.62
2023-05-11T07:21:22.284Z,13.73
2023-05-11T07:23:49.262Z,13.85
2023-05-11T07:26:16.522Z,13.95
2023-05-11T07:28:43.360Z,14.08
2023-05-11T07:31:10.284Z,14.22
2023-05-11T07:33:38.436Z,14.39
2023-05-11T07:36:06.904Z,14.52
2023-05-11T07:38:33.863Z,14.62
2023-05-11T07:41:00.759Z,14.64
2023-05-11T07:43:27.709Z,14.67
2023-05-11T07:45:54.673Z,14.75
2023-05-11T07:48:21.739Z,14.87
2023-05-11T07:50:49.732Z,14.97
2023-05-11T07:53:16.775Z,15.03
2023-05-11T07:55:43.625Z,15.10
2023-05-11T07:58:10.726Z,15.17
2023-05-11T08:00:38.126Z,15.27
2023-05-11T08:03:05.026Z,15.36
2023-05-11T08:05:38.007Z,15.46
2023-05-11T08:08:05.280Z,15.53
2023-05-11T08:10:32.448Z,15.62
2023-05-11T08:12:59.652Z,15.73
2023-05-11T08:15:27.069Z,15.80
2023-05-11T08:17:54.213Z,15.82
2023-05-11T08:20:21.125Z,15.84
2023-05-11T08:22:48.142Z,15.92
2023-05-11T08:25:18.119Z,16.04
2023-05-11T08:27:45.260Z,16.17
2023-05-11T08:30:12.463Z,16.26
2023-05-11T08:32:57.118Z,16.32
2023-05-11T08:35:25.804Z,16.39
2023-05-11T08:37:55.034Z,16.44
2023-05-11T08:40:21.882Z,16.53
2023-05-11T08:42:51.133Z,16.66
2023-05-11T08:45:18.175Z,16.73
2023-05-11T08:47:46.662Z,16.82
2023-05-11T08:50:14.054Z,16.89
2023-05-11T08:52:41.306Z,17.00
2023-05-11T08:55:13.016Z,17.07
2023-05-11T08:57:40.514Z,17.17
2023-05-11T09:00:08.997Z,17.26
2023-05-11T09:02:36.055Z,17.34
2023-05-11T09:05:05.549Z,17.39
2023-05-11T09:07:33.340Z,17.38
2023-05-11T09:10:00.317Z,17.34
2023-05-11T09:17:04.692Z,17.45
2023-05-11T09:19:31.833Z,17.56
2023-05-11T09:22:02.566Z,17.62
2023-05-11T09:24:31.088Z,17.65
2023-05-11T09:27:09.176Z,17.71
2023-05-11T09:29:42.793Z,17.81
2023-05-11T09:32:10.253Z,17.92
2023-05-11T09:34:43.061Z,17.93
2023-05-11T09:37:16.852Z,17.87
2023-05-11T09:40:04.798Z,17.81
2023-05-11T09:42:30.687Z,17.74
2023-05-11T09:44:58.512Z,17.76
2023-05-11T09:47:27.692Z,17.81
2023-05-11T09:49:57.216Z,17.86
2023-05-11T09:52:26.560Z,17.95
2023-05-11T09:54:53.918Z,18.08
2023-05-11T09:57:28.478Z,18.15
2023-05-11T09:59:59.711Z,18.13
2023-05-11T10:02:30.926Z,18.10
2023-05-11T10:04:59.124Z,18.03
2023-05-11T10:07:29.886Z,17.94
2023-05-11T10:10:05.739Z,17.96
2023-05-11T10:12:33.879Z,18.04
2023-05-11T10:15:02.175Z,18.09
2023-05-11T10:17:30.926Z,18.05
2023-05-11T10:19:58.354Z,17.93
2023-05-11T10:22:25.941Z,17.83
2023-05-11T10:24:53.377Z,17.74
2023-05-11T10:27:20.889Z,17.74
2023-05-11T10:32:54.927Z,17.83
2023-05-11T10:35:22.530Z,17.77
2023-05-11T10:37:50.712Z,17.75
2023-05-11T10:40:18.392Z,17.78
2023-05-11T10:42:45.522Z,17.88
2023-05-11T10:45:21.971Z,17.97
2023-05-11T10:48:07.631Z,17.93
2023-05-11T10:51:12.664Z,17.79
2023-05-11T10:54:12.560Z,17.66
2023-05-11T10:57:05.771Z,17.61
2023-05-11T11:00:12.079Z,17.71
2023-05-11T11:02:39.726Z,17.94
2023-05-11T11:05:10.849Z,18.15
2023-05-11T11:07:56.919Z,18.30
2023-05-11T11:10:37.169Z,18.36
2023-05-11T11:13:09.578Z,18.27
2023-05-11T11:15:57.236Z,18.13
2023-05-11T11:18:33.658Z,18.05
2023-05-11T11:21:01.822Z,18.10
2023-05-11T11:23:50.235Z,18.19
2023-05-11T11:26:38.561Z,18.32
2023-05-11T11:29:11.091Z,18.44
2023-05-11T11:31:40.591Z,18.51
2023-05-11T11:34:37.052Z,18.55
2023-05-11T11:37:04.453Z,18.50
2023-05-11T11:39:43.792Z,18.50
2023-05-11T11:42:12.554Z,18.56
2023-05-11T11:44:39.953Z,18.62
2023-05-11T11:47:16.575Z,18.57
2023-05-11T11:49:44.797Z,18.43
2023-05-11T11:52:26.508Z,18.24
2023-05-11T11:54:54.212Z,18.13
2023-05-11T11:57:32.625Z,18.07
2023-05-11T12:00:00.238Z,18.01
2023-05-11T12:02:27.709Z,17.95
2023-05-11T12:05:00.175Z,17.99
2023-05-11T12:07:27.417Z,18.11
2023-05-11T12:09:54.282Z,18.24
2023-05-11T12:12:21.394Z,18.26
2023-05-11T12:14:51.170Z,18.20
2023-05-11T12:17:29.789Z,18.11
2023-05-11T12:20:14.561Z,18.05
2023-05-11T12:22:41.762Z,17.97
2023-05-11T12:25:11.417Z,17.89
2023-05-11T12:27:49.936Z,17.85
2023-05-11T12:30:21.451Z,17.84
2023-05-11T12:32:48.524Z,17.89
2023-05-11T12:35:16.641Z,17.94
2023-05-11T12:37:44.252Z,17.90
2023-05-11T12:40:11.908Z,17.80
2023-05-11T12:42:38.801Z,17.70
2023-05-11T12:45:06.225Z,17.64
2023-05-11T12:47:35.502Z,17.67
2023-05-11T12:50:02.635Z,17.78
2023-05-11T12:52:29.480Z,17.83
2023-05-11T12:55:00.260Z,17.81
2023-05-11T12:57:34.105Z,17.74
2023-05-11T13:00:11.425Z,17.68
2023-05-11T13:02:51.171Z,17.69
2023-05-11T13:05:19.688Z,17.72
2023-05-11T13:07:48.642Z,17.77
2023-05-11T13:10:15.575Z,17.82
2023-05-11T13:12:49.829Z,17.83
2023-05-11T13:15:16.922Z,17.90
2023-05-11T13:17:44.251Z,17.96
2023-05-11T13:20:34.837Z,18.00
2023-05-11T13:23:06.094Z,17.98
2023-05-11T13:25:33.609Z,17.90
2023-05-11T13:28:01.623Z,17.82
2023-05-11T13:30:33.413Z,17.72
2023-05-11T13:33:02.012Z,17.58
2023-05-11T13:35:28.923Z,17.48
2023-05-11T13:37:56.405Z,17.51
2023-05-11T13:40:23.419Z,17.64
2023-05-11T13:42:50.223Z,17.76
2023-05-11T13:45:17.891Z,17.77
2023-05-11T13:47:45.621Z,17.69
2023-05-11T13:50:12.969Z,17.63
2023-05-11T13:52:40.820Z,17.62
2023-05-11T13:55:08.365Z,17.63
2023-05-11T13:57:35.450Z,17.66
2023-05-11T14:00:02.697Z,17.69
2023-05-11T14:02:38.720Z,17.70
2023-05-11T14:05:06.041Z,17.68
2023-05-11T14:07:45.752Z,17.72
2023-05-11T14:10:14.551Z,17.75
2023-05-11T14:12:41.529Z,17.79
2023-05-11T14:15:09.276Z,17.81
2023-05-11T14:17:36.332Z,17.77
2023-05-11T14:20:04.046Z,17.75
2023-05-11T14:22:31.001Z,17.76
2023-05-11T14:24:58.003Z,17.80
2023-05-11T14:27:24.821Z,17.81
2023-05-11T14:29:52.417Z,17.81
2023-05-11T14:32:19.749Z,17.81
2023-05-11T14:34:46.993Z,17.83
2023-05-11T14:37:13.904Z,17.86
2023-05-11T14:39:41.208Z,17.92
2023-05-11T14:42:08.480Z,17.96
2023-05-11T14:44:35.412Z,17.98
2023-05-11T14:47:02.383Z,17.96
2023-05-11T14:49:29.267Z,17.93
2023-05-11T14:51:57.878Z,17.86
2023-05-11T14:54:24.966Z,17.82
2023-05-11T14:56:54.117Z,17.82
2023-05-11T14:59:21.664Z,17.84
2023-05-11T15:01:49.557Z,17.82
2023-05-11T15:04:17.001Z,17.76
2023-05-11T15:06:44.106Z,17.71
2023-05-11T15:09:11.097Z,17.68
2023-05-11T15:11:38.151Z,17.64
2023-05-11T15:14:08.175Z,17.61
2023-05-11T15:16:35.360Z,17.58
2023-05-11T15:19:02.302Z,17.52
2023-05-11T15:21:29.258Z,17.49
2023-05-11T15:23:56.272Z,17.46
2023-05-11T15:26:23.171Z,17.44
2023-05-11T15:28:50.102Z,17.41
2023-05-11T15:31:19.395Z,17.40
2023-05-11T15:33:48.691Z,17.38
2023-05-11T15:36:15.791Z,17.34
2023-05-11T15:38:42.970Z,17.33
2023-05-11T15:41:12.838Z,17.33
2023-05-11T15:43:39.717Z,17.33
2023-05-11T15:46:10.244Z,17.33
2023-05-11T15:48:37.371Z,17.29
2023-05-11T15:51:06.595Z,17.22
2023-05-11T15:53:33.523Z,17.18
2023-05-11T15:56:00.498Z,17.13
2023-05-11T15:58:29.181Z,17.09
2023-05-11T16:00:58.563Z,17.07
2023-05-11T16:03:26.044Z,17.05
2023-05-11T16:05:53.482Z,17.04
2023-05-11T16:08:20.678Z,17.02
2023-05-11T16:10:47.669Z,17.00
2023-05-11T16:13:14.640Z,16.96
2023-05-11T16:15:41.511Z,16.92
2023-05-11T16:18:08.565Z,16.87
2023-05-11T16:20:35.486Z,16.82
2023-05-11T16:23:02.395Z,16.77
2023-05-11T16:25:29.369Z,16.72
2023-05-11T16:27:58.551Z,16.69
2023-05-11T16:30:26.113Z,16.67
2023-05-11T16:32:53.698Z,16.63
2023-05-11T16:35:20.994Z,16.59
2023-05-11T16:37:48.384Z,16.55
2023-05-11T16:40:19.191Z,16.50
2023-05-11T16:42:47.536Z,16.46
2023-05-11T16:45:15.182Z,16.42
2023-05-11T16:47:43.222Z,16.39
2023-05-11T16:50:10.870Z,16.35
2023-05-11T16:52:37.788Z,16.29
2023-05-11T16:55:05.109Z,16.24
2023-05-11T16:57:32.009Z,16.19
2023-05-11T16:59:58.914Z,16.14
2023-05-11T17:02:25.945Z,16.07
2023-05-11T17:04:52.994Z,16.03
2023-05-11T17:07:19.873Z,15.97
2023-05-11T17:09:46.813Z,15.91
2023-05-11T17:12:13.869Z,15.84
2023-05-11T17:14:40.797Z,15.79
2023-05-11T17:17:08.207Z,15.75
2023-05-11T17:19:35.122Z,15.71
2023-05-11T17:22:02.369Z,15.68
2023-05-11T17:24:29.352Z,15.62
2023-05-11T17:26:56.327Z,15.57
2023-05-11T17:29:23.274Z,15.52
2023-05-11T17:31:51.869Z,15.48
2023-05-11T17:34:19.750Z,15.42
2023-05-11T17:36:47.779Z,15.35
2023-05-11T17:39:16.128Z,15.29
2023-05-11T17:41:43.385Z,15.22
2023-05-11T17:44:10.486Z,15.17
2023-05-11T17:46:39.860Z,15.12
2023-05-11T17:49:07.356Z,15.07
2023-05-11T17:51:36.840Z,15.03
2023-05-11T17:54:03.913Z,14.98
2023-05-11T17:56:31.589Z,14.91
2023-05-11T17:58:58.548Z,14.85
2023-05-11T18:01:27.529Z,14.80
2023-05-11T18:03:54.755Z,14.75
2023-05-11T18:06:21.766Z,14.69
2023-05-11T18:08:48.827Z,14.62
2023-05-11T18:11:15.713Z,14.56
2023-05-11T18:13:42.724Z,14.50
2023-05-11T18:16:09.894Z,14.45
2023-05-11T18:18:36.977Z,14.40
2023-05-11T18:21:05.651Z,14.36
2023-05-11T18:23:32.903Z,14.31
2023-05-11T18:25:59.973Z,14.27
2023-05-11T18:28:27.097Z,14.21
2023-05-11T18:30:54.342Z,14.17
2023-05-11T18:33:21.349Z,14.12
2023-05-11T18:35:48.358Z,14.07
2023-05-11T18:38:15.215Z,14.02
2023-05-11T18:40:42.108Z,13.97
2023-05-11T18:43:09.670Z,13.91
2023-05-11T18:45:36.530Z,13.87
2023-05-11T18:48:03.872Z,13.80
2023-05-11T18:50:30.853Z,13.74
2023-05-11T18:52:57.926Z,13.69
2023-05-11T18:55:25.049Z,13.65
2023-05-11T18:57:52.861Z,13.63
2023-05-11T19:00:20.737Z,13.58
2023-05-11T19:02:48.374Z,13.55
2023-05-11T19:05:15.745Z,13.51
2023-05-11T19:07:42.695Z,13.48
2023-05-11T19:10:10.079Z,13.44
2023-05-11T19:12:37.344Z,13.39
2023-05-11T19:15:04.685Z,13.32
2023-05-11T19:17:31.616Z,13.26
2023-05-11T19:19:58.737Z,13.21
2023-05-11T19:22:26.158Z,13.16
2023-05-11T19:24:53.086Z,13.11
2023-05-11T19:27:20.001Z,13.08
2023-05-11T19:29:49.566Z,13.03
2023-05-11T19:32:19.930Z,12.98
2023-05-11T19:34:47.250Z,12.93
2023-05-11T19:37:14.124Z,12.90
2023-05-11T19:39:41.380Z,12.86
2023-05-11T19:42:08.508Z,12.82
2023-05-11T19:44:37.963Z,12.78
2023-05-11T19:47:04.851Z,12.75
2023-05-11T19:49:31.715Z,12.72
2023-05-11T19:51:59.134Z,12.70
2023-05-11T19:54:26.036Z,12.69
2023-05-11T19:56:53.032Z,12.68
2023-05-11T19:59:20.302Z,12.65
2023-05-11T20:01:47.303Z,12.60
2023-05-11T20:04:15.032Z,12.58
2023-05-11T20:06:41.945Z,12.55
2023-05-11T20:09:08.912Z,12.51
2023-05-11T20:11:35.930Z,12.47
2023-05-11T20:14:04.779Z,12.45
2023-05-11T20:16:32.183Z,12.43
2023-05-11T20:18:59.647Z,12.41
2023-05-11T20:21:26.780Z,12.38
2023-05-11T20:23:53.759Z,12.35
2023-05-11T20:26:20.655Z,12.28
2023-05-11T20:28:47.773Z,12.25
2023-05-11T20:31:14.663Z,12.22
2023-05-11T20:36:14.298Z,12.10
2023-05-11T20:38:41.187Z,12.04
2023-05-11T20:41:08.287Z,12.01
2023-05-11T20:43:35.129Z,11.98
2023-05-11T20:46:03.547Z,11.93
2023-05-11T20:48:39.677Z,11.90
2023-05-11T20:51:07.849Z,11.84
2023-05-11T20:53:37.975Z,11.77
2023-05-11T20:56:05.009Z,11.72
2023-05-11T20:58:31.967Z,11.68
2023-05-11T21:00:59.114Z,11.64
2023-05-11T21:03:26.779Z,11.62
2023-05-11T21:05:53.860Z,11.61
2023-05-11T21:08:20.828Z,11.59
2023-05-11T21:10:47.753Z,11.56
2023-05-11T21:13:16.984Z,11.53
2023-05-11T21:15:43.816Z,11.51
2023-05-11T21:18:10.843Z,11.50
2023-05-11T21:20:37.817Z,11.48
2023-05-11T21:23:04.807Z,11.45
2023-05-11T21:25:31.644Z,11.40
2023-05-11T21:28:00.894Z,11.35
2023-05-11T21:30:30.309Z,11.29
2023-05-11T21:32:57.486Z,11.24
2023-05-11T21:35:24.386Z,11.21
2023-05-11T21:37:51.464Z,11.20
2023-05-11T21:40:18.676Z,11.18
2023-05-11T21:42:46.344Z,11.16
2023-05-11T21:45:13.282Z,11.13
2023-05-11T21:47:40.235Z,11.10
2023-05-11T21:50:08.725Z,11.05
2023-05-11T21:52:37.190Z,10.97
2023-05-11T21:55:04.887Z,10.91
2023-05-11T21:57:31.824Z,10.88
2023-05-11T21:59:58.694Z,10.85
2023-05-11T22:02:25.915Z,10.84
2023-05-11T22:04:53.108Z,10.81
2023-05-11T22:07:20.222Z,10.78
2023-05-11T22:09:47.125Z,10.74
2023-05-11T22:12:14.036Z,10.69
2023-05-11T22:14:41.538Z,10.65
2023-05-11T22:17:08.653Z,10.61
2023-05-11T22:19:35.708Z,10.57
2023-05-11T22:22:02.621Z,10.56
2023-05-11T22:24:29.679Z,10.54
2023-05-11T22:26:56.603Z,10.52
2023-05-11T22:29:23.419Z,10.49
2023-05-11T22:31:50.364Z,10.47
2023-05-11T22:34:19.348Z,10.41
2023-05-11T22:36:48.833Z,10.35
2023-05-11T22:42:37.989Z,10.27
2023-05-11T22:45:05.432Z,10.19
2023-05-11T22:50:31.767Z,10.09
2023-05-11T22:52:58.714Z,10.00
2023-05-11T22:55:25.774Z,9.95
2023-05-11T22:57:52.720Z,9.92
2023-05-11T23:00:20.573Z,9.88
2023-05-11T23:02:47.904Z,9.84
2023-05-11T23:05:14.948Z,9.80
2023-05-11T23:07:42.113Z,9.75
2023-05-11T23:10:09.453Z,9.70
2023-05-11T23:12:36.366Z,9.66
2023-05-11T23:15:03.990Z,9.64
2023-05-11T23:17:31.057Z,9.63
2023-05-11T23:19:58.189Z,9.59
2023-05-11T23:22:25.229Z,9.56
2023-05-11T23:24:52.173Z,9.54
2023-05-11T23:27:19.085Z,9.52
2023-05-11T23:29:46.058Z,9.51
2023-05-11T23:32:13.167Z,9.47
2023-05-11T23:34:40.353Z,9.45
2023-05-11T23:37:07.497Z,9.43
2023-05-11T23:39:34.458Z,9.40
2023-05-11T23:42:01.726Z,9.35
2023-05-11T23:44:28.585Z,9.31
2023-05-11T23:46:55.633Z,9.28
2023-05-11T23:49:22.569Z,9.27
2023-05-11T23:51:49.532Z,9.35
2023-05-11T23:54:16.525Z,9.48
2023-05-11T23:56:44.393Z,9.58
2023-05-11T23:59:11.288Z,9.65
